Time;durP1;ratioP1;P1;durP2;ratioP2;P2;SDS_P1;SDS_P2;PMS_P1;PMS_P2;Temp;Humidity;BMP_temperature;BMP_pressure;BME280_temperature;BME280_humidity;BME280_pressure;Samples;Min_cycle;Max_cycle;Signal;HPM_P1;HPM_P2
2023/04/01 00:01:48;;;;;;;3.17;0.90;;;;;;;;;;12942841;22;20016;-80
2023/04/01 00:06:51;;;;;;;1.83;0.88;;;;;;;;;;12919412;22;20004;-80
2023/04/01 00:11:51;;;;;;;3.08;1.00;;;;;;;;;;12971265;22;20022;-79
2023/04/01 00:16:53;;;;;;;1.85;0.80;;;;;;;;;;12977445;22;20014;-79
2023/04/01 00:21:53;;;;;;;3.50;1.10;;;;;;;;;;12977824;22;20061;-79
2023/04/01 00:26:56;;;;;;;2.17;1.10;;;;;;;;;;12977407;22;20258;-79
2023/04/01 00:31:57;;;;;;;4.25;1.52;;;;;;;;;;12945245;22;20554;-79
2023/04/01 00:36:57;;;;;;;3.50;1.15;;;;;;;;;;12932939;22;20005;-82
2023/04/01 00:42:00;;;;;;;3.13;0.85;;;;;;;;;;12888104;23;20012;-79
2023/04/01 00:47:00;;;;;;;3.85;1.13;;;;;;;;;;12905665;23;20016;-81
2023/04/01 00:52:03;;;;;;;1.58;0.85;;;;;;;;;;12903986;23;20437;-79
2023/04/01 00:57:13;;;;;;;1.75;0.80;;;;;;;;;;12904746;23;20015;-81
2023/04/01 01:02:14;;;;;;;2.58;0.93;;;;;;;;;;12896079;23;20015;-82
2023/04/01 01:07:22;;;;;;;2.65;0.75;;;;;;;;;;12909014;23;20016;-79
2023/04/01 01:12:32;;;;;;;2.17;0.77;;;;;;;;;;12875754;23;20016;-80
2023/04/01 01:17:34;;;;;;;3.75;1.23;;;;;;;;;;12925172;23;20419;-81
2023/04/01 01:22:54;;;;;;;3.08;0.73;;;;;;;;;;12882572;23;20047;-79
2023/04/01 01:28:01;;;;;;;2.00;0.88;;;;;;;;;;12926970;23;20030;-79
2023/04/01 01:33:21;;;;;;;4.72;1.13;;;;;;;;;;12898483;23;20015;-81
2023/04/01 01:38:28;;;;;;;5.15;1.08;;;;;;;;;;12905391;23;20012;-81
2023/04/01 01:43:40;;;;;;;2.78;0.95;;;;;;;;;;12902979;23;20016;-80
2023/04/01 01:48:45;;;;;;;1.73;0.90;;;;;;;;;;12868916;23;20408;-80
2023/04/01 01:53:46;;;;;;;1.75;0.85;;;;;;;;;;12903916;23;20026;-82
2023/04/01 01:58:52;;;;;;;1.63;0.82;;;;;;;;;;12873975;22;20008;-80
2023/04/01 02:03:57;;;;;;;2.40;0.80;;;;;;;;;;12902982;23;20083;-82
2023/04/01 02:09:06;;;;;;;3.47;1.02;;;;;;;;;;12875166;22;20024;-81
2023/04/01 02:14:20;;;;;;;1.98;0.70;;;;;;;;;;12904209;22;20469;-82
2023/04/01 02:19:24;;;;;;;1.97;1.10;;;;;;;;;;12911928;23;20032;-81
2023/04/01 02:24:29;;;;;;;7.38;2.33;;;;;;;;;;12910493;22;20013;-81
2023/04/01 02:29:30;;;;;;;20.00;6.68;;;;;;;;;;12905329;22;20024;-82
2023/04/01 02:34:32;;;;;;;3.57;1.77;;;;;;;;;;12879750;23;20107;-83
2023/04/01 02:39:35;;;;;;;2.35;1.00;;;;;;;;;;12909542;23;20249;-82
2023/04/01 02:44:37;;;;;;;3.97;1.17;;;;;;;;;;12910663;23;20012;-81
2023/04/01 02:49:40;;;;;;;2.20;0.77;;;;;;;;;;12895914;23;20016;-79
2023/04/01 02:54:41;;;;;;;1.23;0.73;;;;;;;;;;12928273;23;20012;-80
2023/04/01 02:59:44;;;;;;;3.45;1.20;;;;;;;;;;12863584;22;20047;-80
2023/04/01 03:04:47;;;;;;;1.48;0.70;;;;;;;;;;12881281;23;20020;-79
2023/04/01 03:09:47;;;;;;;3.03;0.98;;;;;;;;;;12883010;23;20016;-79
2023/04/01 03:14:48;;;;;;;1.90;0.80;;;;;;;;;;12879403;23;20094;-79
2023/04/01 03:19:49;;;;;;;1.38;0.70;;;;;;;;;;12903051;23;20472;-79
2023/04/01 03:24:50;;;;;;;2.35;0.68;;;;;;;;;;12905167;23;20471;-79
2023/04/01 03:29:50;;;;;;;1.23;0.63;;;;;;;;;;12884385;22;20062;-78
2023/04/01 03:34:52;;;;;;;2.43;0.80;;;;;;;;;;12909637;23;20022;-80
2023/04/01 03:39:52;;;;;;;3.90;0.70;;;;;;;;;;12878031;23;20293;-79
2023/04/01 03:44:59;;;;;;;3.35;0.90;;;;;;;;;;12906017;23;20066;-81
2023/04/01 03:50:02;;;;;;;2.25;0.77;;;;;;;;;;12906577;23;20019;-80
2023/04/01 03:55:04;;;;;;;3.28;0.80;;;;;;;;;;12900143;23;20031;-81
2023/04/01 04:00:06;;;;;;;4.13;0.70;;;;;;;;;;12898072;23;20028;-80
2023/04/01 04:05:15;;;;;;;2.90;0.90;;;;;;;;;;12883313;23;20074;-80
2023/04/01 04:10:37;;;;;;;1.17;0.63;;;;;;;;;;12911900;23;20020;-82
2023/04/01 04:15:38;;;;;;;2.22;1.02;;;;;;;;;;12890083;23;20273;-83
2023/04/01 04:20:49;;;;;;;2.47;0.90;;;;;;;;;;12883747;23;20012;-80
2023/04/01 04:25:54;;;;;;;2.35;0.70;;;;;;;;;;12876244;23;20102;-79
2023/04/01 04:30:55;;;;;;;1.73;0.82;;;;;;;;;;12876205;23;20027;-81
2023/04/01 04:35:56;;;;;;;1.67;0.70;;;;;;;;;;12850869;23;20524;-79
2023/04/01 04:40:57;;;;;;;2.05;0.70;;;;;;;;;;12875525;22;20019;-80
2023/04/01 04:45:58;;;;;;;2.22;0.77;;;;;;;;;;12876747;23;20019;-80
2023/04/01 04:50:59;;;;;;;2.30;0.75;;;;;;;;;;12870924;23;20742;-79
2023/04/01 04:56:00;;;;;;;1.80;0.68;;;;;;;;;;12853903;23;20042;-78
2023/04/01 05:01:13;;;;;;;1.77;0.60;;;;;;;;;;12853086;23;20468;-81
2023/04/01 05:06:15;;;;;;;0.88;0.63;;;;;;;;;;12876390;23;20024;-79
2023/04/01 05:11:16;;;;;;;2.20;0.75;;;;;;;;;;12875117;23;20095;-78
2023/04/01 05:16:20;;;;;;;2.72;0.70;;;;;;;;;;12850093;23;20015;-79
2023/04/01 05:21:21;;;;;;;1.52;1.30;;;;;;;;;;12906228;23;20012;-80
2023/04/01 05:26:22;;;;;;;1.98;0.85;;;;;;;;;;12876123;23;20018;-79
2023/04/01 05:31:23;;;;;;;1.33;0.75;;;;;;;;;;12879009;22;20104;-78
2023/04/01 05:36:25;;;;;;;1.60;0.70;;;;;;;;;;12913892;23;20051;-79
2023/04/01 05:41:28;;;;;;;1.73;0.68;;;;;;;;;;12895892;23;20047;-80
2023/04/01 05:46:30;;;;;;;0.97;0.50;;;;;;;;;;12902390;23;20024;-80
2023/04/01 05:51:57;;;;;;;2.53;0.60;;;;;;;;;;12880648;23;20255;-80
2023/04/01 05:57:00;;;;;;;3.63;1.05;;;;;;;;;;12875456;23;20352;-79
2023/04/01 06:02:02;;;;;;;1.35;0.80;;;;;;;;;;12907196;23;20023;-81
2023/04/01 06:07:13;;;;;;;2.10;0.90;;;;;;;;;;12907625;23;20031;-80
2023/04/01 06:12:37;;;;;;;2.13;0.88;;;;;;;;;;12888427;23;20022;-79
2023/04/01 06:17:49;;;;;;;1.55;1.10;;;;;;;;;;12905667;23;20027;-81
2023/04/01 06:22:59;;;;;;;1.25;0.70;;;;;;;;;;12912360;23;20026;-76
2023/04/01 06:28:07;;;;;;;0.70;0.70;;;;;;;;;;12856202;22;20032;-79
2023/04/01 06:33:19;;;;;;;0.60;0.60;;;;;;;;;;12897425;23;20138;-80
2023/04/01 06:38:30;;;;;;;1.48;0.68;;;;;;;;;;12930438;23;20078;-82
2023/04/01 06:43:45;;;;;;;2.13;0.85;;;;;;;;;;12899211;22;20033;-82
2023/04/01 06:48:51;;;;;;;0.77;0.47;;;;;;;;;;12968472;22;20016;-83
2023/04/01 06:54:17;;;;;;;2.15;0.60;;;;;;;;;;12911307;22;20028;-80
2023/04/01 06:59:44;;;;;;;1.40;0.60;;;;;;;;;;12949410;23;20466;-82
2023/04/01 07:04:48;;;;;;;1.85;0.80;;;;;;;;;;12907050;23;20012;-80
2023/04/01 07:09:49;;;;;;;;;;;;;;;;;;12918729;22;20012;-79
2023/04/01 07:15:15;;;;;;;1.52;0.63;;;;;;;;;;12962546;22;19907;-80
2023/04/01 07:20:27;;;;;;;2.05;0.90;;;;;;;;;;12922623;23;20041;-81
2023/04/01 07:25:30;;;;;;;1.55;0.80;;;;;;;;;;12930629;23;20070;-82
2023/04/01 07:30:56;;;;;;;0.90;0.63;;;;;;;;;;12913492;23;20014;-80
2023/04/01 07:36:04;;;;;;;1.20;0.60;;;;;;;;;;12968876;22;19992;-79
2023/04/01 07:41:22;;;;;;;1.05;0.60;;;;;;;;;;12947987;22;20008;-84
2023/04/01 07:46:41;;;;;;;1.40;0.60;;;;;;;;;;12976596;22;20083;-78
2023/04/01 07:51:43;;;;;;;2.08;0.70;;;;;;;;;;12947986;22;20004;-78
2023/04/01 07:56:48;;;;;;;0.70;0.60;;;;;;;;;;12969180;22;19999;-77
2023/04/01 08:02:00;;;;;;;1.40;0.60;;;;;;;;;;12943646;22;20030;-78
2023/04/01 08:07:06;;;;;;;2.55;0.90;;;;;;;;;;12944372;22;20004;-79
2023/04/01 08:12:35;;;;;;;2.22;0.82;;;;;;;;;;12945609;22;20012;-81
2023/04/01 08:18:04;;;;;;;2.72;0.80;;;;;;;;;;12977337;22;20020;-80
2023/04/01 08:23:24;;;;;;;1.48;0.68;;;;;;;;;;12909974;22;20008;-79
2023/04/01 08:28:37;;;;;;;2.05;0.80;;;;;;;;;;12970770;22;20015;-81
2023/04/01 08:33:41;;;;;;;1.35;0.73;;;;;;;;;;12921234;22;20004;-83
2023/04/01 08:38:54;;;;;;;2.35;0.65;;;;;;;;;;12924823;22;20078;-79
2023/04/01 08:44:33;;;;;;;1.50;0.73;;;;;;;;;;12970474;22;20023;-83
2023/04/01 08:49:36;;;;;;;0.93;0.70;;;;;;;;;;12722175;23;20025;-83
2023/04/01 08:54:40;;;;;;;1.20;0.60;;;;;;;;;;12837991;22;20729;-84
2023/04/01 08:59:56;;;;;;;1.67;0.65;;;;;;;;;;12891605;23;20008;-81
2023/04/01 09:05:30;;;;;;;1.35;0.50;;;;;;;;;;12808697;22;20038;-80
2023/04/01 09:10:46;;;;;;;0.63;0.50;;;;;;;;;;12944757;22;20826;-85
2023/04/01 09:16:22;;;;;;;2.03;0.57;;;;;;;;;;12926353;22;20492;-85
2023/04/01 09:21:31;;;;;;;1.42;0.80;;;;;;;;;;12905065;22;20012;-83
2023/04/01 09:26:43;;;;;;;1.50;0.52;;;;;;;;;;12885673;22;20520;-82
2023/04/01 09:31:44;;;;;;;0.82;0.50;;;;;;;;;;12884795;23;20009;-85
2023/04/01 09:37:21;;;;;;;0.70;0.43;;;;;;;;;;12839563;23;20437;-86
2023/04/01 09:42:27;;;;;;;1.77;0.73;;;;;;;;;;12853636;23;20055;-83
2023/04/01 09:47:59;;;;;;;0.95;0.40;;;;;;;;;;12855779;23;20034;-84
2023/04/01 09:53:05;;;;;;;0.60;0.50;;;;;;;;;;12861477;23;20009;-80
2023/04/01 09:58:13;;;;;;;1.73;0.60;;;;;;;;;;12875711;23;19997;-78
2023/04/01 10:03:36;;;;;;;1.50;0.50;;;;;;;;;;12894208;22;20247;-78
2023/04/01 10:08:42;;;;;;;1.10;0.57;;;;;;;;;;12895862;23;20009;-80
2023/04/01 10:13:49;;;;;;;2.17;1.23;;;;;;;;;;12891175;22;20024;-80
2023/04/01 10:18:59;;;;;;;0.65;0.57;;;;;;;;;;12933421;22;20004;-79
2023/04/01 10:24:20;;;;;;;0.77;0.40;;;;;;;;;;12953842;22;20038;-81
2023/04/01 10:29:42;;;;;;;0.50;0.40;;;;;;;;;;12939367;22;20018;-81
2023/04/01 10:35:01;;;;;;;2.33;0.40;;;;;;;;;;12931561;22;20039;-81
2023/04/01 10:40:08;;;;;;;1.08;0.60;;;;;;;;;;12908377;22;20445;-84
2023/04/01 10:50:47;;;;;;;1.30;0.60;;;;;;;;;;12719538;23;20026;-86
2023/04/01 10:55:50;;;;;;;0.65;0.50;;;;;;;;;;12715968;23;20026;-81
2023/04/01 11:01:23;;;;;;;1.42;0.63;;;;;;;;;;12759096;23;20013;-82
2023/04/01 11:06:54;;;;;;;1.83;0.90;;;;;;;;;;12798584;23;20013;-86
2023/04/01 11:12:23;;;;;;;1.25;0.95;;;;;;;;;;12779802;23;20088;-80
2023/04/01 11:17:32;;;;;;;0.77;0.77;;;;;;;;;;12777599;23;20089;-83
2023/04/01 11:22:38;;;;;;;1.92;0.90;;;;;;;;;;12776377;23;20091;-84
2023/04/01 11:27:48;;;;;;;0.65;0.60;;;;;;;;;;12777113;23;20052;-80
2023/04/01 11:32:55;;;;;;;1.17;0.50;;;;;;;;;;12796933;23;20044;-80
2023/04/01 11:38:15;;;;;;;1.10;0.80;;;;;;;;;;12824837;23;20517;-81
2023/04/01 11:43:33;;;;;;;1.23;0.82;;;;;;;;;;12778628;23;20028;-81
2023/04/01 11:49:03;;;;;;;1.63;0.55;;;;;;;;;;12753455;23;20083;-84
2023/04/01 11:54:17;;;;;;;1.13;0.50;;;;;;;;;;12771861;23;20009;-82
2023/04/01 11:59:40;;;;;;;0.60;0.45;;;;;;;;;;12803994;23;20025;-80
2023/04/01 12:04:40;;;;;;;0.98;0.50;;;;;;;;;;12815387;22;20027;-80
2023/04/01 12:09:47;;;;;;;0.80;0.60;;;;;;;;;;12816458;23;20041;-81
2023/04/01 12:14:47;;;;;;;0.90;0.60;;;;;;;;;;12789751;23;20091;-83
2023/04/01 12:19:52;;;;;;;0.70;0.60;;;;;;;;;;12792998;23;20075;-82
2023/04/01 12:25:04;;;;;;;0.43;0.43;;;;;;;;;;12795733;23;21111;-83
2023/04/01 12:30:11;;;;;;;0.80;0.60;;;;;;;;;;12778266;23;20031;-81
2023/04/01 12:35:18;;;;;;;1.13;0.82;;;;;;;;;;12831744;23;20036;-81
2023/04/01 12:40:36;;;;;;;0.80;0.50;;;;;;;;;;12838248;23;20001;-80
2023/04/01 12:45:49;;;;;;;1.67;0.60;;;;;;;;;;12803728;23;20016;-84
2023/04/01 12:50:58;;;;;;;0.52;0.50;;;;;;;;;;12824924;23;20013;-81
2023/04/01 12:55:59;;;;;;;2.70;2.13;;;;;;;;;;12827377;23;20031;-81
2023/04/01 13:00:59;;;;;;;3.10;1.50;;;;;;;;;;12814768;23;20008;-82
2023/04/01 13:06:18;;;;;;;1.00;0.68;;;;;;;;;;12811359;23;20501;-82
2023/04/01 13:11:28;;;;;;;1.38;1.02;;;;;;;;;;12786570;23;20009;-82
2023/04/01 13:16:48;;;;;;;1.58;1.20;;;;;;;;;;12795461;23;20073;-81
2023/04/01 13:21:54;;;;;;;1.48;1.10;;;;;;;;;;12833469;23;20016;-79
2023/04/01 13:27:02;;;;;;;1.10;0.93;;;;;;;;;;12840501;23;20005;-80
2023/04/01 13:32:17;;;;;;;1.23;0.75;;;;;;;;;;12825875;23;20039;-83
2023/04/01 13:37:25;;;;;;;0.90;0.70;;;;;;;;;;12798173;23;20020;-81
2023/04/01 13:42:45;;;;;;;3.58;0.80;;;;;;;;;;12785139;23;20023;-82
2023/04/01 13:47:57;;;;;;;0.68;0.68;;;;;;;;;;12809440;23;20501;-82
2023/04/01 13:53:05;;;;;;;0.88;0.57;;;;;;;;;;12799710;23;20020;-82
2023/04/01 13:58:24;;;;;;;1.25;0.88;;;;;;;;;;12828514;23;20011;-83
2023/04/01 14:03:50;;;;;;;0.60;0.50;;;;;;;;;;12817257;23;19993;-80
2023/04/01 14:09:09;;;;;;;1.05;0.60;;;;;;;;;;12845720;23;20071;-79
2023/04/01 14:14:13;;;;;;;0.50;0.50;;;;;;;;;;12825979;23;20033;-81
2023/04/01 14:19:13;;;;;;;;;;;;;;;;;;12807946;23;20024;-79
2023/04/01 14:24:13;;;;;;;2.05;1.13;;;;;;;;;;12823433;23;19935;-80
2023/04/01 14:29:22;;;;;;;0.93;0.75;;;;;;;;;;12797406;23;20017;-82
2023/04/01 14:34:32;;;;;;;0.63;0.63;;;;;;;;;;12789209;23;20020;-82
2023/04/01 14:39:51;;;;;;;2.83;1.73;;;;;;;;;;12808393;23;20765;-81
2023/04/01 14:44:57;;;;;;;1.40;0.98;;;;;;;;;;12793447;23;20342;-82
2023/04/01 14:50:12;;;;;;;1.15;0.68;;;;;;;;;;12808385;23;20024;-80
2023/04/01 14:55:19;;;;;;;1.85;0.80;;;;;;;;;;12801584;23;20008;-79
2023/04/01 15:00:20;;;;;;;2.10;0.75;;;;;;;;;;12798916;23;20013;-82
2023/04/01 15:05:29;;;;;;;0.80;0.80;;;;;;;;;;12793387;23;20023;-84
2023/04/01 15:10:45;;;;;;;1.27;0.90;;;;;;;;;;12789961;23;20013;-82
2023/04/01 15:15:55;;;;;;;1.73;1.20;;;;;;;;;;12769970;23;20120;-84
2023/04/01 15:21:16;;;;;;;1.10;0.85;;;;;;;;;;12771620;23;20020;-82
2023/04/01 15:26:20;;;;;;;0.80;0.60;;;;;;;;;;12759044;23;20027;-80
2023/04/01 15:31:28;;;;;;;0.60;0.55;;;;;;;;;;12792364;23;20021;-81
2023/04/01 15:36:44;;;;;;;1.73;0.70;;;;;;;;;;12781752;23;20020;-80
2023/04/01 15:42:00;;;;;;;1.88;0.70;;;;;;;;;;12782601;23;20052;-80
2023/04/01 15:47:01;;;;;;;1.00;0.90;;;;;;;;;;12832321;23;20017;-84
2023/04/01 15:52:08;;;;;;;0.68;0.63;;;;;;;;;;12789616;23;20020;-81
2023/04/01 15:57:12;;;;;;;1.52;0.68;;;;;;;;;;12811501;23;20397;-80
2023/04/01 16:02:27;;;;;;;1.02;0.93;;;;;;;;;;12790021;23;20761;-80
2023/04/01 16:07:42;;;;;;;0.88;0.65;;;;;;;;;;12765448;23;20530;-79
2023/04/01 16:13:01;;;;;;;1.50;1.00;;;;;;;;;;12794982;23;20020;-79
2023/04/01 16:18:01;;;;;;;1.85;1.10;;;;;;;;;;12802683;23;20009;-82
2023/04/01 16:23:10;;;;;;;1.40;1.10;;;;;;;;;;12787535;23;20021;-82
2023/04/01 16:28:14;;;;;;;1.13;0.88;;;;;;;;;;12755219;23;20032;-79
2023/04/01 16:33:33;;;;;;;1.45;0.90;;;;;;;;;;12758555;23;20016;-79
2023/04/01 16:38:38;;;;;;;1.58;0.80;;;;;;;;;;12760035;23;20017;-82
2023/04/01 16:43:51;;;;;;;1.70;0.90;;;;;;;;;;12757706;23;20017;-80
2023/04/01 16:48:55;;;;;;;1.30;0.80;;;;;;;;;;12756127;23;20020;-80
2023/04/01 16:54:20;;;;;;;1.10;0.93;;;;;;;;;;12784122;23;20735;-81
2023/04/01 16:59:23;;;;;;;2.20;0.80;;;;;;;;;;12755553;23;20032;-81
2023/04/01 17:04:23;;;;;;;2.53;1.67;;;;;;;;;;12776753;23;20378;-80
2023/04/01 17:09:52;;;;;;;1.67;1.03;;;;;;;;;;12733101;23;20051;-83
2023/04/01 17:15:07;;;;;;;1.48;1.35;;;;;;;;;;12780590;23;20016;-82
2023/04/01 17:20:12;;;;;;;2.30;1.27;;;;;;;;;;12752876;23;20715;-80
2023/04/01 17:25:16;;;;;;;1.60;1.27;;;;;;;;;;12754836;23;20614;-82
2023/04/01 17:30:16;;;;;;;1.05;0.90;;;;;;;;;;12757401;23;20116;-81
2023/04/01 17:35:37;;;;;;;1.83;1.00;;;;;;;;;;12789880;23;20096;-80
2023/04/01 17:40:48;;;;;;;2.05;1.20;;;;;;;;;;12780702;23;20017;-82
2023/04/01 17:45:52;;;;;;;1.98;1.30;;;;;;;;;;12818310;23;20021;-80
2023/04/01 17:51:03;;;;;;;2.33;1.20;;;;;;;;;;12824054;23;20073;-79
2023/04/01 17:56:15;;;;;;;1.15;1.05;;;;;;;;;;12807154;23;20009;-80
2023/04/01 18:01:30;;;;;;;1.27;1.10;;;;;;;;;;12757612;23;20059;-79
2023/04/01 18:06:36;;;;;;;1.73;1.25;;;;;;;;;;12762003;23;20021;-81
2023/04/01 18:11:39;;;;;;;1.25;1.00;;;;;;;;;;12828156;23;20016;-80
2023/04/01 18:16:59;;;;;;;0.90;0.80;;;;;;;;;;12809559;23;20283;-82
2023/04/01 18:22:15;;;;;;;1.17;1.00;;;;;;;;;;12815651;23;20017;-82
2023/04/01 18:27:18;;;;;;;1.23;0.90;;;;;;;;;;12820796;23;20120;-79
2023/04/01 18:32:36;;;;;;;1.27;1.02;;;;;;;;;;12801205;23;20028;-82
2023/04/01 18:37:41;;;;;;;1.58;1.20;;;;;;;;;;12814406;23;20036;-83
2023/04/01 18:42:43;;;;;;;1.20;0.80;;;;;;;;;;12810235;23;20100;-84
2023/04/01 18:47:49;;;;;;;1.43;1.00;;;;;;;;;;12800808;23;20027;-82
2023/04/01 18:53:13;;;;;;;1.77;1.50;;;;;;;;;;12804784;23;20065;-83
2023/04/01 18:58:23;;;;;;;1.52;1.42;;;;;;;;;;12800542;23;20017;-80
2023/04/01 19:03:27;;;;;;;1.73;1.55;;;;;;;;;;12817990;23;20063;-83
2023/04/01 19:08:27;;;;;;;;;;;;;;;;;;12878000;22;20004;-83
2023/04/01 19:13:35;;;;;;;2.70;1.40;;;;;;;;;;12898750;22;19896;-82
2023/04/01 19:18:55;;;;;;;3.00;1.40;;;;;;;;;;12888883;23;20004;-84
2023/04/01 19:24:17;;;;;;;2.25;1.30;;;;;;;;;;12880768;23;20092;-84
2023/04/01 19:29:22;;;;;;;1.77;1.23;;;;;;;;;;12843055;23;20024;-84
2023/04/01 19:34:41;;;;;;;2.75;1.88;;;;;;;;;;12849037;23;20008;-83
2023/04/01 19:39:49;;;;;;;1.52;1.42;;;;;;;;;;12869875;23;20012;-85
2023/04/01 19:44:49;;;;;;;1.58;1.10;;;;;;;;;;12836114;23;20497;-85
2023/04/01 19:49:56;;;;;;;1.33;1.17;;;;;;;;;;12867317;23;20027;-83
2023/04/01 19:55:11;;;;;;;1.35;1.20;;;;;;;;;;12873980;23;20031;-84
2023/04/01 20:00:34;;;;;;;2.53;1.30;;;;;;;;;;12878355;23;20078;-83
2023/04/01 20:05:41;;;;;;;1.97;1.40;;;;;;;;;;12848516;23;20077;-82
2023/04/01 20:11:08;;;;;;;1.33;1.05;;;;;;;;;;12872357;23;20069;-85
2023/04/01 20:16:11;;;;;;;2.08;1.33;;;;;;;;;;12780495;23;20051;-82
2023/04/01 20:21:15;;;;;;;1.95;1.30;;;;;;;;;;12888381;23;20039;-81
2023/04/01 20:26:20;;;;;;;1.58;1.10;;;;;;;;;;12876245;22;20013;-81
2023/04/01 20:31:34;;;;;;;2.13;1.10;;;;;;;;;;12904957;22;20016;-83
2023/04/01 20:36:53;;;;;;;1.47;1.37;;;;;;;;;;12879478;22;19996;-81
2023/04/01 20:42:00;;;;;;;1.58;1.40;;;;;;;;;;12878492;22;20013;-84
2023/04/01 20:47:19;;;;;;;1.45;1.27;;;;;;;;;;12888284;23;20004;-81
2023/04/01 20:52:25;;;;;;;1.65;1.30;;;;;;;;;;12877845;22;20004;-82
2023/04/01 20:57:32;;;;;;;2.42;1.25;;;;;;;;;;12863141;23;20685;-84
2023/04/01 21:02:33;;;;;;;2.60;1.70;;;;;;;;;;12862648;23;20019;-84
2023/04/01 21:07:49;;;;;;;2.80;1.30;;;;;;;;;;12859494;23;20032;-83
2023/04/01 21:13:08;;;;;;;2.05;1.15;;;;;;;;;;12849827;23;20015;-79
2023/04/01 21:18:38;;;;;;;1.80;1.35;;;;;;;;;;12855846;23;20032;-82
2023/04/01 21:23:49;;;;;;;1.90;1.50;;;;;;;;;;12727112;23;20340;-83
2023/04/01 21:29:08;;;;;;;2.55;1.83;;;;;;;;;;12833682;23;20043;-81
2023/04/01 21:34:27;;;;;;;1.92;1.27;;;;;;;;;;12862995;23;20004;-83
2023/04/01 21:39:34;;;;;;;1.17;1.00;;;;;;;;;;12882770;23;20009;-82
2023/04/01 21:44:53;;;;;;;1.27;1.00;;;;;;;;;;12888041;23;20056;-82
2023/04/01 21:49:57;;;;;;;1.50;1.10;;;;;;;;;;12867741;22;20025;-81
2023/04/01 21:55:16;;;;;;;1.35;0.90;;;;;;;;;;12887880;23;20016;-81
2023/04/01 22:00:41;;;;;;;1.38;1.25;;;;;;;;;;12860136;23;20013;-83
2023/04/01 22:05:44;;;;;;;1.67;1.17;;;;;;;;;;12843490;23;20048;-81
2023/04/01 22:10:51;;;;;;;1.13;1.02;;;;;;;;;;12875520;23;20067;-83
2023/04/01 22:16:02;;;;;;;2.10;0.93;;;;;;;;;;12843995;23;20017;-82
2023/04/01 22:21:09;;;;;;;1.05;0.90;;;;;;;;;;12831201;23;20013;-81
2023/04/01 22:26:22;;;;;;;1.85;1.33;;;;;;;;;;12887312;23;20088;-82
2023/04/01 22:31:26;;;;;;;1.42;1.33;;;;;;;;;;12878042;22;20024;-81
2023/04/01 22:36:41;;;;;;;1.70;1.27;;;;;;;;;;12881397;22;20019;-83
2023/04/01 22:41:50;;;;;;;2.50;1.38;;;;;;;;;;12878308;22;20009;-83
2023/04/01 22:47:09;;;;;;;1.75;1.05;;;;;;;;;;12873152;23;20021;-82
2023/04/01 22:52:19;;;;;;;1.45;1.20;;;;;;;;;;12868944;22;20004;-80
2023/04/01 22:57:34;;;;;;;3.83;1.27;;;;;;;;;;12864759;22;20241;-83
2023/04/01 23:02:39;;;;;;;1.35;1.17;;;;;;;;;;12881740;23;20017;-82
2023/04/01 23:07:46;;;;;;;2.25;1.13;;;;;;;;;;12877700;23;20020;-80
2023/04/01 23:12:52;;;;;;;1.80;1.00;;;;;;;;;;12831194;23;20012;-81
2023/04/01 23:18:02;;;;;;;1.10;1.00;;;;;;;;;;12827120;23;20017;-80
2023/04/01 23:23:10;;;;;;;3.75;1.73;;;;;;;;;;12809733;22;20016;-82
2023/04/01 23:28:14;;;;;;;2.42;1.10;;;;;;;;;;12867154;23;20476;-80
2023/04/01 23:33:18;;;;;;;1.30;1.20;;;;;;;;;;12819468;23;20090;-80
2023/04/01 23:38:20;;;;;;;1.40;1.30;;;;;;;;;;12851346;23;20024;-80
2023/04/01 23:43:26;;;;;;;2.10;1.67;;;;;;;;;;12855326;23;20013;-82
2023/04/01 23:48:29;;;;;;;2.25;1.30;;;;;;;;;;12861523;23;20028;-81
2023/04/01 23:53:32;;;;;;;3.08;1.73;;;;;;;;;;12851711;23;20386;-81
2023/04/01 23:58:32;;;;;;;;;;;;;;;;;;12847854;23;20012;-82
